Time;durP1;ratioP1;P1;durP2;ratioP2;P2;SDS_P1;SDS_P2;PMS_P1;PMS_P2;Temp;Humidity;BMP_temperature;BMP_pressure;BME280_temperature;BME280_humidity;BME280_pressure;Samples;Min_cycle;Max_cycle;Signal;HPM_P1;HPM_P2
2022/07/29 00:04:04;;;;;;;2.90;2.70;;;25.80;26.60;;;;;;10454033;28;20212;-72
2022/07/29 00:09:07;;;;;;;2.77;2.57;;;25.80;26.40;;;;;;10454388;28;20225;-73
2022/07/29 00:14:12;;;;;;;3.50;2.33;;;25.70;26.50;;;;;;10456473;28;20228;-73
2022/07/29 00:19:16;;;;;;;2.80;2.60;;;25.60;27.50;;;;;;10452188;28;20602;-73
2022/07/29 00:24:19;;;;;;;2.83;2.60;;;25.50;27.30;;;;;;10450577;28;20592;-73
2022/07/29 00:29:24;;;;;;;2.63;2.43;;;25.20;28.20;;;;;;10452584;28;20232;-73
2022/07/29 00:39:57;;;;;;;2.80;2.60;;;24.80;29.10;;;;;;10456652;28;20592;-72
2022/07/29 00:45:02;;;;;;;2.47;2.27;;;24.60;29.00;;;;;;10453985;28;20683;-72
2022/07/29 00:50:07;;;;;;;2.43;2.30;;;24.40;30.00;;;;;;10451861;28;20282;-73
2022/07/29 00:55:13;;;;;;;2.80;2.60;;;24.30;29.80;;;;;;10452120;28;20216;-72
2022/07/29 01:00:20;;;;;;;2.60;2.40;;;24.20;30.90;;;;;;10456902;28;20225;-73
2022/07/29 01:05:27;;;;;;;2.93;2.73;;;24.20;30.90;;;;;;10451509;28;20229;-72
2022/07/29 01:10:51;;;;;;;2.77;2.57;;;24.10;30.50;;;;;;10452970;28;21247;-72
2022/07/29 01:16:04;;;;;;;2.60;2.40;;;24.10;30.00;;;;;;10451003;28;20228;-72
2022/07/29 01:21:28;;;;;;;2.83;2.63;;;24.10;31.40;;;;;;10448323;28;20310;-72
2022/07/29 01:26:43;;;;;;;3.43;2.60;;;24.10;30.80;;;;;;10453630;28;20224;-72
2022/07/29 01:31:54;;;;;;;3.63;2.60;;;24.00;31.80;;;;;;10455065;28;20234;-73
2022/07/29 01:37:09;;;;;;;2.93;2.73;;;24.00;32.00;;;;;;10458106;28;20672;-72
2022/07/29 01:42:19;;;;;;;3.03;2.83;;;23.90;32.20;;;;;;10459302;28;20598;-72
2022/07/29 01:47:30;;;;;;;3.30;2.70;;;23.80;32.80;;;;;;10455847;28;20232;-73
2022/07/29 01:52:37;;;;;;;2.80;2.50;;;23.80;32.50;;;;;;10458155;28;21229;-72
2022/07/29 01:57:43;;;;;;;2.90;2.70;;;23.80;32.60;;;;;;10458842;28;20228;-73
2022/07/29 02:02:50;;;;;;;2.50;2.37;;;23.80;31.70;;;;;;10461512;28;20236;-72
2022/07/29 02:07:54;;;;;;;2.83;2.63;;;23.90;32.90;;;;;;10452504;28;20239;-72
2022/07/29 02:12:59;;;;;;;2.80;2.70;;;23.90;32.10;;;;;;10454285;28;20234;-72
2022/07/29 02:18:08;;;;;;;4.90;2.80;;;23.90;32.10;;;;;;10454295;28;20231;-72
2022/07/29 02:23:12;;;;;;;3.07;2.70;;;23.80;33.00;;;;;;10459904;28;20236;-72
2022/07/29 02:28:17;;;;;;;3.10;2.80;;;23.80;32.20;;;;;;10456709;28;20238;-72
2022/07/29 02:33:24;;;;;;;2.70;2.50;;;23.80;32.30;;;;;;10458473;28;20227;-72
2022/07/29 02:43:54;;;;;;;3.10;2.90;;;23.70;33.10;;;;;;10454446;28;20225;-72
2022/07/29 02:49:05;;;;;;;3.27;2.53;;;23.60;33.20;;;;;;10455535;28;20239;-72
2022/07/29 02:54:11;;;;;;;2.80;2.60;;;23.60;34.20;;;;;;10454792;28;20256;-72
2022/07/29 02:59:18;;;;;;;2.87;2.67;;;23.50;33.40;;;;;;10456304;28;20228;-72
2022/07/29 03:04:25;;;;;;;3.13;2.60;;;23.50;33.00;;;;;;10450350;28;21810;-72
2022/07/29 03:09:30;;;;;;;2.80;2.60;;;23.50;34.00;;;;;;10452513;28;20278;-72
2022/07/29 03:14:34;;;;;;;3.07;2.73;;;23.50;33.30;;;;;;10457385;28;20315;-72
2022/07/29 03:19:40;;;;;;;3.10;2.80;;;23.50;33.20;;;;;;10456406;28;20217;-72
2022/07/29 03:24:43;;;;;;;2.43;2.23;;;23.50;34.10;;;;;;10457218;28;20235;-73
2022/07/29 03:29:49;;;;;;;3.00;2.80;;;23.50;33.20;;;;;;10455816;28;20232;-72
2022/07/29 03:34:54;;;;;;;2.83;2.63;;;23.60;33.30;;;;;;10452369;28;20221;-72
2022/07/29 03:39:59;;;;;;;2.60;2.40;;;23.60;33.80;;;;;;10451229;28;20224;-72
2022/07/29 03:45:07;;;;;;;3.20;2.60;;;23.60;33.50;;;;;;10453124;28;20224;-72
2022/07/29 03:50:13;;;;;;;2.77;2.57;;;23.70;33.80;;;;;;10458348;28;20224;-72
2022/07/29 03:55:17;;;;;;;2.63;2.43;;;23.70;34.00;;;;;;10452480;28;20227;-73
2022/07/29 04:00:20;;;;;;;2.80;2.40;;;23.80;33.40;;;;;;10453969;28;20245;-73
2022/07/29 04:05:25;;;;;;;2.90;2.50;;;23.80;33.30;;;;;;10454361;28;20273;-72
2022/07/29 04:10:29;;;;;;;2.97;2.77;;;23.80;34.00;;;;;;10453776;28;20220;-72
2022/07/29 04:15:36;;;;;;;2.80;2.60;;;23.80;33.30;;;;;;10456232;28;20227;-73
2022/07/29 04:20:40;;;;;;;2.97;2.57;;;23.70;33.30;;;;;;10454315;28;20232;-72
2022/07/29 04:25:44;;;;;;;2.20;2.00;;;23.70;34.00;;;;;;10451205;28;20231;-73
2022/07/29 04:30:47;;;;;;;3.00;2.80;;;23.60;33.60;;;;;;10434823;28;20232;-73
2022/07/29 04:35:51;;;;;;;2.60;2.40;;;23.60;33.70;;;;;;10443254;28;20239;-73
2022/07/29 04:40:57;;;;;;;2.53;2.40;;;23.60;34.30;;;;;;10452916;28;20256;-72
2022/07/29 04:46:01;;;;;;;2.50;2.40;;;23.60;33.70;;;;;;10458465;28;20715;-74
2022/07/29 04:51:05;;;;;;;2.53;2.43;;;23.50;33.70;;;;;;10466613;28;20270;-74
2022/07/29 04:56:09;;;;;;;2.10;2.00;;;23.50;34.30;;;;;;10466749;28;20223;-74
2022/07/29 05:01:12;;;;;;;2.77;2.57;;;23.50;33.80;;;;;;10462975;28;20224;-73
2022/07/29 05:06:16;;;;;;;2.53;2.33;;;23.50;34.10;;;;;;10465158;28;20604;-74
2022/07/29 05:11:20;;;;;;;2.90;2.40;;;23.60;34.60;;;;;;10473909;28;20225;-75
2022/07/29 05:16:27;;;;;;;2.40;2.20;;;23.60;34.20;;;;;;10478041;28;20232;-73
2022/07/29 05:21:32;;;;;;;4.10;2.37;;;23.60;34.10;;;;;;10473766;28;20232;-74
2022/07/29 05:26:35;;;;;;;2.40;2.20;;;23.60;34.80;;;;;;10477076;28;20275;-74
2022/07/29 05:31:38;;;;;;;2.50;2.17;;;23.60;34.20;;;;;;10477325;28;20224;-73
2022/07/29 05:36:43;;;;;;;3.13;2.50;;;23.60;34.30;;;;;;10480458;28;20244;-74
2022/07/29 05:47:02;;;;;;;2.97;2.47;;;23.60;34.20;;;;;;10449980;27;20579;-71
2022/07/29 05:52:06;;;;;;;2.70;2.50;;;23.60;35.00;;;;;;10455475;27;20307;-71
2022/07/29 05:57:09;;;;;;;2.90;2.63;;;23.60;34.70;;;;;;10454339;28;20216;-71
2022/07/29 06:02:14;;;;;;;2.50;2.30;;;23.70;34.80;;;;;;10454794;28;20259;-71
2022/07/29 06:07:17;;;;;;;2.63;2.43;;;23.60;35.50;;;;;;10456417;28;20232;-71
2022/07/29 06:12:21;;;;;;;2.60;2.40;;;23.60;35.00;;;;;;10448353;28;20255;-71
2022/07/29 06:17:25;;;;;;;2.53;2.40;;;23.60;35.00;;;;;;10451901;28;20225;-71
2022/07/29 06:22:28;;;;;;;2.70;2.50;;;23.70;35.80;;;;;;10455586;28;21026;-71
2022/07/29 06:27:32;;;;;;;2.67;2.47;;;23.80;35.20;;;;;;10459254;28;20235;-72
2022/07/29 06:32:39;;;;;;;2.67;2.57;;;23.90;35.40;;;;;;10458123;28;20876;-71
2022/07/29 06:37:45;;;;;;;2.57;2.20;;;24.00;35.80;;;;;;10447738;28;20709;-71
2022/07/29 06:42:50;;;;;;;2.50;2.40;;;24.10;35.40;;;;;;10445401;28;20220;-72
2022/07/29 06:47:55;;;;;;;2.10;1.93;;;24.20;35.30;;;;;;10450835;28;20217;-71
2022/07/29 06:52:58;;;;;;;2.60;2.00;;;24.30;35.70;;;;;;10454357;28;20312;-71
2022/07/29 06:58:01;;;;;;;2.47;1.93;;;24.50;35.50;;;;;;10436385;28;20225;-71
2022/07/29 07:03:06;;;;;;;2.00;1.90;;;24.60;35.40;;;;;;10427559;28;20225;-71
2022/07/29 07:08:09;;;;;;;2.13;1.93;;;24.70;35.50;;;;;;10434073;28;20225;-71
2022/07/29 07:13:13;;;;;;;1.80;1.70;;;24.90;35.20;;;;;;10431757;28;20225;-71
2022/07/29 07:18:18;;;;;;;3.60;1.77;;;25.00;35.10;;;;;;10434810;28;20225;-71
2022/07/29 07:23:21;;;;;;;1.70;1.60;;;25.20;35.10;;;;;;10428480;28;20232;-70
2022/07/29 07:28:24;;;;;;;1.60;1.50;;;25.30;34.80;;;;;;10429654;28;20708;-72
2022/07/29 07:33:28;;;;;;;1.50;1.40;;;25.50;34.60;;;;;;10429894;28;21024;-72
2022/07/29 07:38:32;;;;;;;1.60;1.50;;;25.80;34.70;;;;;;10434101;28;20221;-71
2022/07/29 07:43:35;;;;;;;2.10;1.73;;;26.00;34.10;;;;;;10429193;28;20244;-71
2022/07/29 07:48:39;;;;;;;1.60;1.50;;;26.20;34.00;;;;;;10428354;28;20239;-71
2022/07/29 07:53:44;;;;;;;2.17;1.50;;;26.40;33.20;;;;;;10427959;28;20233;-71
2022/07/29 07:58:48;;;;;;;1.40;1.30;;;26.60;32.60;;;;;;10427815;28;20222;-72
2022/07/29 08:03:52;;;;;;;2.73;1.30;;;26.80;32.70;;;;;;10428344;28;20224;-72
2022/07/29 08:08:55;;;;;;;1.40;1.30;;;26.90;31.10;;;;;;10423076;28;20240;-71
2022/07/29 08:14:19;;;;;;;1.23;1.23;;;27.20;30.80;;;;;;10425428;28;20237;-72
2022/07/29 08:19:23;;;;;;;1.10;1.10;;;27.40;30.40;;;;;;10423403;28;20240;-72
2022/07/29 08:24:46;;;;;;;1.23;1.13;;;27.70;29.40;;;;;;10425874;28;20236;-72
2022/07/29 08:29:50;;;;;;;1.00;1.00;;;27.90;30.10;;;;;;10424485;28;20253;-72
2022/07/29 08:34:54;;;;;;;1.33;1.23;;;28.10;29.30;;;;;;10430780;28;20232;-71
2022/07/29 08:39:58;;;;;;;3.33;1.60;;;28.20;28.70;;;;;;10431462;28;20701;-71
2022/07/29 08:45:01;;;;;;;1.30;1.30;;;28.40;29.00;;;;;;10429002;28;20228;-72
2022/07/29 08:50:07;;;;;;;1.27;1.17;;;28.60;28.80;;;;;;10428878;28;20225;-72
2022/07/29 08:55:11;;;;;;;1.40;1.30;;;28.80;27.70;;;;;;10422917;28;20229;-71
2022/07/29 09:00:17;;;;;;;1.53;1.43;;;29.00;28.20;;;;;;10419381;28;20237;-71
2022/07/29 09:05:21;;;;;;;1.30;1.30;;;29.10;27.50;;;;;;10425083;28;20232;-72
2022/07/29 09:10:25;;;;;;;1.40;1.30;;;29.30;26.90;;;;;;10423968;28;20709;-72
2022/07/29 09:15:28;;;;;;;1.40;1.30;;;29.40;27.00;;;;;;10424364;28;20221;-71
2022/07/29 09:25:50;;;;;;;1.50;1.40;;;29.60;26.70;;;;;;10417034;28;20233;-71
2022/07/29 09:30:55;;;;;;;1.50;1.40;;;29.80;27.00;;;;;;10420609;28;21209;-72
2022/07/29 09:36:04;;;;;;;1.40;1.40;;;29.90;26.70;;;;;;10423234;28;20222;-71
2022/07/29 09:41:09;;;;;;;1.60;1.50;;;30.10;25.80;;;;;;10420677;28;20228;-72
2022/07/29 09:46:14;;;;;;;1.57;1.47;;;30.10;26.20;;;;;;10416399;28;20225;-72
2022/07/29 09:51:20;;;;;;;1.43;1.33;;;30.20;25.70;;;;;;10416707;28;20260;-72
2022/07/29 09:56:42;;;;;;;1.73;1.50;;;30.30;25.20;;;;;;10424104;28;20217;-71
2022/07/29 10:01:45;;;;;;;1.60;1.30;;;30.30;24.60;;;;;;10421148;28;20244;-71
2022/07/29 10:07:01;;;;;;;1.90;1.57;;;30.20;25.10;;;;;;10417235;28;20229;-71
2022/07/29 10:12:10;;;;;;;1.40;1.40;;;30.20;24.80;;;;;;10413315;28;21666;-71
2022/07/29 10:17:13;;;;;;;1.27;1.17;;;30.10;24.80;;;;;;10414047;28;20226;-71
2022/07/29 10:22:18;;;;;;;1.47;1.37;;;30.10;25.10;;;;;;10412327;28;20835;-72
2022/07/29 10:27:42;;;;;;;1.40;1.40;;;30.10;25.00;;;;;;10417798;28;20231;-71
2022/07/29 10:33:12;;;;;;;1.50;1.50;;;30.20;25.20;;;;;;10422041;28;20240;-71
2022/07/29 10:38:54;;;;;;;1.50;1.40;;;30.20;25.30;;;;;;10421963;28;20226;-71
2022/07/29 10:44:02;;;;;;;3.20;1.40;;;30.30;25.20;;;;;;10424729;28;20217;-71
2022/07/29 10:49:14;;;;;;;1.50;1.50;;;30.50;24.60;;;;;;10430974;28;20228;-71
2022/07/29 10:54:18;;;;;;;1.80;1.70;;;30.70;23.80;;;;;;10423735;28;20725;-71
2022/07/29 10:59:28;;;;;;;1.60;1.50;;;30.80;24.60;;;;;;10416350;28;20233;-71
2022/07/29 11:05:03;;;;;;;1.87;1.77;;;30.90;24.00;;;;;;10423169;28;20756;-71
2022/07/29 11:10:22;;;;;;;1.50;1.40;;;31.00;24.00;;;;;;10415570;28;20225;-71
2022/07/29 11:15:53;;;;;;;1.57;1.50;;;31.00;23.30;;;;;;10413560;28;20320;-72
2022/07/29 11:20:57;;;;;;;2.10;2.00;;;31.20;23.90;;;;;;10408325;28;20256;-71
2022/07/29 11:26:23;;;;;;;2.00;1.90;;;31.20;23.90;;;;;;10412747;28;20229;-71
2022/07/29 11:31:36;;;;;;;2.60;1.83;;;31.20;23.90;;;;;;10421117;28;20233;-71
2022/07/29 11:37:19;;;;;;;2.43;2.10;;;31.20;23.90;;;;;;10425934;28;20279;-72
2022/07/29 11:42:41;;;;;;;2.00;1.90;;;31.20;24.30;;;;;;10427870;28;20581;-71
2022/07/29 11:47:57;;;;;;;2.30;2.10;;;31.30;23.60;;;;;;10424744;28;20246;-71
2022/07/29 11:53:21;;;;;;;2.10;2.00;;;31.30;24.00;;;;;;10424003;28;20232;-74
2022/07/29 11:58:25;;;;;;;2.70;2.50;;;31.30;24.00;;;;;;10426111;28;20224;-74
2022/07/29 12:03:30;;;;;;;2.43;2.30;;;31.30;23.80;;;;;;10427038;28;20550;-74
2022/07/29 12:08:42;;;;;;;2.40;2.20;;;31.20;23.70;;;;;;10425979;28;20233;-74
2022/07/29 12:13:45;;;;;;;2.60;2.37;;;31.30;23.30;;;;;;10421071;28;20229;-73
2022/07/29 12:19:00;;;;;;;2.73;2.60;;;31.40;23.30;;;;;;10421120;28;20225;-74
2022/07/29 12:24:05;;;;;;;2.60;2.40;;;31.50;22.20;;;;;;10396713;28;20252;-74
2022/07/29 12:29:17;;;;;;;2.60;2.40;;;31.50;22.90;;;;;;10407233;28;23756;-76
2022/07/29 12:34:37;;;;;;;2.90;2.70;;;31.60;22.20;;;;;;10406404;28;20264;-77
2022/07/29 12:39:40;;;;;;;2.40;2.20;;;31.60;21.90;;;;;;10408689;28;20225;-76
2022/07/29 12:44:48;;;;;;;5.00;2.43;;;31.60;22.00;;;;;;10409502;28;20229;-76
2022/07/29 12:50:09;;;;;;;2.30;2.20;;;31.50;21.10;;;;;;10410366;28;20312;-73
2022/07/29 12:55:13;;;;;;;2.57;2.40;;;31.50;20.20;;;;;;10408588;28;20222;-74
2022/07/29 13:00:17;;;;;;;2.70;2.50;;;31.60;21.90;;;;;;10394265;28;20229;-74
2022/07/29 13:05:21;;;;;;;2.67;2.43;;;31.70;22.00;;;;;;10405542;28;20221;-72
2022/07/29 13:10:25;;;;;;;2.40;2.20;;;31.70;20.60;;;;;;10402411;28;20243;-73
2022/07/29 13:15:29;;;;;;;2.60;2.40;;;31.70;20.80;;;;;;10408016;28;20257;-73
2022/07/29 13:20:33;;;;;;;2.80;2.60;;;31.60;21.00;;;;;;10421537;28;20233;-74
2022/07/29 13:25:40;;;;;;;2.80;2.60;;;31.50;21.20;;;;;;10413451;28;20224;-74
2022/07/29 13:30:44;;;;;;;2.70;2.50;;;31.60;21.10;;;;;;10408934;28;20231;-73
2022/07/29 13:35:48;;;;;;;2.83;2.60;;;31.60;21.20;;;;;;10417829;28;20302;-72
2022/07/29 13:40:52;;;;;;;2.63;2.50;;;31.60;21.00;;;;;;10412895;28;20241;-72
2022/07/29 13:45:55;;;;;;;2.53;2.40;;;31.60;20.90;;;;;;10414640;28;20220;-72
2022/07/29 13:51:00;;;;;;;2.83;2.63;;;31.60;20.70;;;;;;10413493;28;20780;-73
2022/07/29 13:56:05;;;;;;;3.77;2.37;;;31.60;20.00;;;;;;10415464;28;20228;-72
2022/07/29 14:01:09;;;;;;;2.97;2.50;;;31.60;20.30;;;;;;10413259;28;20764;-72
2022/07/29 14:06:14;;;;;;;2.30;2.20;;;31.60;20.30;;;;;;10422943;28;20233;-72
2022/07/29 14:11:20;;;;;;;2.53;2.40;;;31.60;20.20;;;;;;10426132;28;20233;-72
2022/07/29 14:16:23;;;;;;;2.80;2.60;;;31.50;20.50;;;;;;10422299;28;20226;-72
2022/07/29 14:21:28;;;;;;;2.40;2.20;;;31.50;20.40;;;;;;10419557;28;20245;-72
2022/07/29 14:26:33;;;;;;;2.53;2.27;;;31.50;20.30;;;;;;10411690;28;20740;-71
2022/07/29 14:31:37;;;;;;;2.40;2.20;;;31.50;20.20;;;;;;10420231;28;20233;-72
2022/07/29 14:36:41;;;;;;;2.77;2.53;;;31.40;20.30;;;;;;10414937;28;20241;-73
2022/07/29 14:41:44;;;;;;;2.40;2.20;;;31.30;19.70;;;;;;10416304;28;20226;-72
2022/07/29 14:46:48;;;;;;;2.43;2.33;;;31.30;20.10;;;;;;10413964;28;20221;-72
2022/07/29 14:51:52;;;;;;;3.87;2.50;;;31.20;20.40;;;;;;10425118;28;20740;-72
2022/07/29 14:56:56;;;;;;;3.00;2.30;;;31.20;20.10;;;;;;10428564;28;20225;-72
2022/07/29 15:02:00;;;;;;;2.50;2.20;;;31.20;20.50;;;;;;10424518;28;20240;-72
2022/07/29 15:07:06;;;;;;;2.87;2.50;;;31.10;20.50;;;;;;10427683;28;20271;-71
2022/07/29 15:12:10;;;;;;;2.70;2.50;;;31.00;20.70;;;;;;10422324;28;20244;-71
2022/07/29 15:17:14;;;;;;;3.03;2.77;;;31.00;21.00;;;;;;10416887;28;20225;-72
2022/07/29 15:22:18;;;;;;;2.57;2.47;;;30.90;21.10;;;;;;10420710;28;20225;-71
2022/07/29 15:27:22;;;;;;;3.03;2.70;;;30.80;21.50;;;;;;10419429;28;20233;-71
2022/07/29 15:32:25;;;;;;;4.43;2.67;;;30.60;21.40;;;;;;10422330;28;20229;-71
2022/07/29 15:37:30;;;;;;;3.73;2.70;;;30.50;21.40;;;;;;10422356;28;20575;-72
2022/07/29 15:42:51;;;;;;;3.00;2.80;;;30.40;21.30;;;;;;10420458;28;20326;-72
2022/07/29 15:47:54;;;;;;;2.90;2.70;;;30.40;21.30;;;;;;10417590;28;20217;-71
2022/07/29 15:52:59;;;;;;;3.47;3.00;;;30.30;21.60;;;;;;10411896;28;20576;-72
2022/07/29 15:58:02;;;;;;;2.87;2.67;;;30.30;21.90;;;;;;10419064;28;20254;-71
2022/07/29 16:03:05;;;;;;;3.57;3.23;;;30.40;22.10;;;;;;10421304;28;20594;-72
2022/07/29 16:08:10;;;;;;;3.37;2.57;;;30.40;22.00;;;;;;10419234;28;20225;-71
2022/07/29 16:13:13;;;;;;;3.47;3.17;;;30.40;21.90;;;;;;10417482;28;20237;-72
2022/07/29 16:18:21;;;;;;;3.00;2.80;;;30.40;21.80;;;;;;10417017;28;20770;-71
2022/07/29 16:23:33;;;;;;;3.10;2.83;;;30.30;21.50;;;;;;10414471;28;20233;-71
2022/07/29 16:28:37;;;;;;;4.27;3.10;;;30.20;21.80;;;;;;10413352;28;20252;-71
2022/07/29 16:33:40;;;;;;;12.13;11.13;;;30.10;22.00;;;;;;10415230;28;20232;-71
2022/07/29 16:38:59;;;;;;;3.37;3.10;;;30.00;22.00;;;;;;10413012;28;20721;-71
2022/07/29 16:44:02;;;;;;;5.13;2.50;;;29.70;22.20;;;;;;10412023;28;20272;-71
2022/07/29 16:49:05;;;;;;;3.10;2.20;;;29.60;21.80;;;;;;10411013;28;20362;-71
2022/07/29 16:54:10;;;;;;;2.50;2.30;;;29.40;21.50;;;;;;10421202;28;20229;-73
2022/07/29 16:59:13;;;;;;;2.10;2.00;;;29.30;21.10;;;;;;10412834;28;20226;-72
2022/07/29 17:04:18;;;;;;;2.37;2.17;;;29.10;21.40;;;;;;10416966;28;20235;-72
2022/07/29 17:09:23;;;;;;;2.13;1.93;;;28.90;21.30;;;;;;10415826;28;20968;-73
2022/07/29 17:14:29;;;;;;;2.20;2.00;;;28.80;21.50;;;;;;10408495;28;20229;-72
2022/07/29 17:19:34;;;;;;;2.20;2.00;;;28.70;21.80;;;;;;10414700;28;20585;-72
2022/07/29 17:24:38;;;;;;;2.30;2.10;;;28.50;21.90;;;;;;10414227;28;20229;-72
2022/07/29 17:29:46;;;;;;;2.13;1.93;;;28.40;22.00;;;;;;10418231;28;20237;-72
2022/07/29 17:34:49;;;;;;;2.00;1.90;;;28.30;22.20;;;;;;10414678;28;20229;-71
2022/07/29 17:39:54;;;;;;;1.73;1.57;;;28.20;22.10;;;;;;10420882;28;20229;-71
2022/07/29 17:45:02;;;;;;;2.00;1.50;;;28.20;22.00;;;;;;10423728;28;20216;-71
2022/07/29 17:50:06;;;;;;;1.60;1.50;;;28.10;22.20;;;;;;10422091;28;20231;-72
2022/07/29 17:55:12;;;;;;;1.63;1.53;;;28.00;22.50;;;;;;10429576;28;20229;-72
2022/07/29 18:00:15;;;;;;;1.70;1.60;;;27.80;23.00;;;;;;10423389;28;20251;-72
2022/07/29 18:05:19;;;;;;;1.57;1.47;;;27.60;23.00;;;;;;10429753;28;20220;-71
2022/07/29 18:10:23;;;;;;;1.70;1.60;;;27.30;23.40;;;;;;10428654;28;20240;-72
2022/07/29 18:15:27;;;;;;;1.93;1.70;;;27.00;24.10;;;;;;10421888;28;20231;-72
2022/07/29 18:20:30;;;;;;;1.97;1.70;;;26.80;24.10;;;;;;10427130;28;20229;-72
2022/07/29 18:25:35;;;;;;;2.00;1.60;;;26.60;24.50;;;;;;10440803;28;20771;-72
2022/07/29 18:30:38;;;;;;;2.37;2.17;;;26.40;25.10;;;;;;10429931;28;20685;-74
2022/07/29 18:35:41;;;;;;;2.63;1.83;;;26.30;25.10;;;;;;10425556;28;20225;-74
2022/07/29 18:40:46;;;;;;;2.23;2.13;;;26.10;25.40;;;;;;10425043;28;20229;-73
2022/07/29 18:45:49;;;;;;;2.20;2.07;;;25.90;26.00;;;;;;10415250;28;20222;-74
2022/07/29 18:50:53;;;;;;;2.30;1.93;;;25.90;25.90;;;;;;10403411;28;20973;-72
2022/07/29 18:56:00;;;;;;;2.37;2.00;;;25.80;25.90;;;;;;10408669;28;20335;-74
2022/07/29 19:01:03;;;;;;;2.30;2.10;;;25.80;26.40;;;;;;10412297;28;20232;-74
2022/07/29 19:06:07;;;;;;;2.27;2.17;;;25.70;26.10;;;;;;10410908;28;20217;-72
2022/07/29 19:11:12;;;;;;;2.50;2.30;;;25.70;26.30;;;;;;10410776;28;20278;-71
2022/07/29 19:16:17;;;;;;;2.70;2.50;;;25.60;26.80;;;;;;10413103;28;20779;-73
2022/07/29 19:21:20;;;;;;;2.53;2.33;;;25.50;26.60;;;;;;10411072;28;20713;-74
2022/07/29 19:26:25;;;;;;;2.50;2.30;;;25.50;27.10;;;;;;10408169;28;21296;-71
2022/07/29 19:31:28;;;;;;;3.13;2.17;;;25.50;27.50;;;;;;10410205;28;20221;-72
2022/07/29 19:36:32;;;;;;;2.50;2.30;;;25.50;27.40;;;;;;10406303;28;20554;-71
2022/07/29 19:41:37;;;;;;;1.93;1.83;;;25.40;27.60;;;;;;10410931;28;20342;-71
2022/07/29 19:46:40;;;;;;;2.77;1.80;;;25.40;28.20;;;;;;10409486;28;20235;-72
2022/07/29 19:51:43;;;;;;;1.60;1.50;;;25.30;27.70;;;;;;10410957;28;20222;-72
2022/07/29 19:56:48;;;;;;;2.63;1.57;;;25.20;27.70;;;;;;10421115;28;20417;-71
2022/07/29 20:01:51;;;;;;;1.70;1.60;;;25.20;28.40;;;;;;10413357;28;20232;-71
2022/07/29 20:06:59;;;;;;;1.40;1.40;;;25.20;28.20;;;;;;10421773;28;20731;-72
2022/07/29 20:12:05;;;;;;;1.50;1.40;;;25.10;28.20;;;;;;10411667;28;20834;-72
2022/07/29 20:17:09;;;;;;;1.20;1.20;;;25.10;28.80;;;;;;10415711;28;20691;-72
2022/07/29 20:22:13;;;;;;;1.50;1.40;;;25.00;28.70;;;;;;10420155;28;20240;-72
2022/07/29 20:27:24;;;;;;;1.30;1.27;;;24.90;28.60;;;;;;10423022;28;20249;-72
2022/07/29 20:32:28;;;;;;;1.50;1.40;;;24.90;28.60;;;;;;10415478;28;20675;-72
2022/07/29 20:37:31;;;;;;;2.60;1.40;;;24.90;28.60;;;;;;10411759;28;20221;-71
2022/07/29 20:42:55;;;;;;;2.03;1.50;;;24.90;29.20;;;;;;10410939;28;20222;-72
2022/07/29 20:47:58;;;;;;;1.07;1.07;;;24.90;29.40;;;;;;10411422;28;20225;-72
2022/07/29 20:53:02;;;;;;;1.50;1.40;;;24.90;28.60;;;;;;10412729;28;20598;-72
2022/07/29 20:58:06;;;;;;;1.30;1.30;;;24.90;28.90;;;;;;10419628;28;20294;-72
2022/07/29 21:03:10;;;;;;;1.60;1.50;;;24.90;29.50;;;;;;10419936;28;20925;-72
2022/07/29 21:08:13;;;;;;;1.60;1.50;;;24.90;29.40;;;;;;10416440;28;20233;-72
2022/07/29 21:13:19;;;;;;;1.70;1.60;;;24.90;29.70;;;;;;10422134;28;20718;-72
2022/07/29 21:18:30;;;;;;;1.60;1.50;;;24.90;30.40;;;;;;10428145;28;21196;-72
2022/07/29 21:23:35;;;;;;;1.90;1.80;;;24.80;29.90;;;;;;10433092;28;20258;-72
2022/07/29 21:28:40;;;;;;;2.20;2.00;;;24.70;30.00;;;;;;10431730;28;20257;-72
2022/07/29 21:33:45;;;;;;;1.90;1.80;;;24.60;30.90;;;;;;10424421;28;20233;-72
2022/07/29 21:38:48;;;;;;;2.20;2.10;;;24.40;31.40;;;;;;10433145;28;20228;-72
2022/07/29 21:43:53;;;;;;;2.20;2.10;;;24.10;31.30;;;;;;10432495;28;20290;-72
2022/07/29 21:49:00;;;;;;;2.07;1.97;;;24.00;32.50;;;;;;10436090;28;20232;-71
2022/07/29 21:54:03;;;;;;;2.50;2.27;;;23.90;31.90;;;;;;10437445;28;20304;-72
2022/07/29 21:59:09;;;;;;;4.50;2.40;;;23.80;32.20;;;;;;10438747;28;20221;-72
2022/07/29 22:04:15;;;;;;;2.27;2.17;;;23.60;33.30;;;;;;10425897;28;20231;-72
2022/07/29 22:09:18;;;;;;;2.60;2.40;;;23.50;32.70;;;;;;10429057;28;20234;-72
2022/07/29 22:14:22;;;;;;;2.70;2.50;;;23.40;33.00;;;;;;10438502;28;20233;-72
2022/07/29 22:19:27;;;;;;;2.70;2.50;;;23.40;34.30;;;;;;10437941;28;20303;-72
2022/07/29 22:24:32;;;;;;;2.90;2.70;;;23.30;33.70;;;;;;10437992;28;20647;-72
2022/07/29 22:29:36;;;;;;;2.73;2.53;;;23.20;33.90;;;;;;10446594;28;20328;-72
2022/07/29 22:34:40;;;;;;;3.23;2.67;;;23.10;35.30;;;;;;10445577;28;20312;-72
2022/07/29 22:39:43;;;;;;;2.83;2.67;;;23.00;34.80;;;;;;10440691;28;20220;-72
2022/07/29 22:44:47;;;;;;;3.80;3.30;;;22.90;34.80;;;;;;10421113;28;20225;-72
2022/07/29 22:49:51;;;;;;;3.23;3.00;;;22.90;36.10;;;;;;10430405;28;20221;-72
2022/07/29 22:54:54;;;;;;;3.33;3.03;;;22.80;35.50;;;;;;10428521;28;20256;-72
2022/07/29 23:00:00;;;;;;;3.37;3.17;;;22.70;35.60;;;;;;10426122;28;20225;-72
2022/07/29 23:05:04;;;;;;;3.83;3.53;;;22.70;36.90;;;;;;10431330;28;20243;-72
2022/07/29 23:10:09;;;;;;;3.53;3.20;;;22.60;36.20;;;;;;10424677;28;20231;-72
2022/07/29 23:15:14;;;;;;;3.43;3.13;;;22.50;36.50;;;;;;10425524;28;20232;-72
2022/07/29 23:20:20;;;;;;;3.50;3.20;;;22.50;37.80;;;;;;10419407;28;20871;-72
2022/07/29 23:25:23;;;;;;;3.70;3.40;;;22.50;36.70;;;;;;10444985;28;20953;-72
2022/07/29 23:30:28;;;;;;;3.50;3.20;;;22.50;36.80;;;;;;10430447;28;20244;-72
2022/07/29 23:35:31;;;;;;;3.67;3.37;;;22.50;38.30;;;;;;10432322;28;20282;-72
2022/07/29 23:40:35;;;;;;;4.13;3.30;;;22.40;37.20;;;;;;10427341;28;20230;-72
2022/07/29 23:45:40;;;;;;;3.10;2.90;;;22.20;37.70;;;;;;10425499;28;20286;-72
2022/07/29 23:50:46;;;;;;;3.83;3.53;;;22.10;38.40;;;;;;10429148;28;20391;-72
2022/07/29 23:55:49;;;;;;;3.60;3.30;;;22.00;38.30;;;;;;10425196;28;20225;-72
